Weather History for Hayden, CO

Change the Weather History Date:

Monday, August 12, 2013

  Actual Average Record
Temperature  
Mean Temperature 64 °F -  
Max Temperature 77 °F 82 °F 94 °F (1958)
Min Temperature 50 °F 48 °F 38 °F (1948)
Degree Days  
Heating Degree Days 2    
Growing Degree Days 14 (Base 50)    
Moisture  
Dew Point 37 °F    
Average Humidity 40    
Maximum Humidity 62    
Minimum Humidity 18    
Precipitation  
Precipitation 0.00 in - - ()
Sea Level Pressure  
Sea Level Pressure 30.30 in    
Wind  
Wind Speed 9 mph (ESE)    
Max Wind Speed 28 mph    
Max Gust Speed 38 mph    
Visibility 10 miles    
Events Thunderstorm    
Averages and records for this station are not official NWS values.
T = Trace of Precipitation, MM = Missing Value Source: NWS Daily Summary

Daily Weather History Graph

Daily Weather History Graph

Search for Another Location

Airport:

Trip Planner

Search our weather history database for the weather conditions in past years. The results will help you decide how hot, cold, wet, or windy it might be!

Date:

Astronomy

Aug. 12, 2013 Rise Set
Actual Time 6:16 AM MDT 8:09 PM MDT
Civil Twilight 5:47 AM MDT 8:39 PM MDT
Nautical Twilight 5:11 AM MDT 9:15 PM MDT
Astronomical Twilight 4:32 AM MDT 9:53 PM MDT
Moon 12:12 PM MDT (8/12) 11:03 PM MDT (8/12)
Length of Visible Light 14h 51m
Length of Day
13h 53m
Waxing Crescent, 32% of the Moon is Illuminated
Aug 12
Waxing Crescent
Aug 14
First Quarter
Aug 20
Full
Aug 28
Last Quarter
Sep 5
New

Hourly Weather History & Observations

Time (MDT) Temp. Dew Point Humidity Pressure Visibility Wind Dir Wind Speed Gust Speed Precip Events Conditions
12:15 AM 55.4 °F 35.6 °F 47% 30.32 in 10.0 mi SE 5.8 mph - N/A   Clear
12:35 AM 55.4 °F 35.6 °F 47% 30.32 in 10.0 mi SSE 6.9 mph - N/A   Clear
12:55 AM 55.4 °F 35.6 °F 47% 30.32 in 10.0 mi ESE 5.8 mph - N/A   Mostly Cloudy
1:15 AM 55.4 °F 35.6 °F 47% 30.31 in 10.0 mi East 6.9 mph - N/A   Mostly Cloudy
1:35 AM 55.4 °F 35.6 °F 47% 30.31 in 10.0 mi ESE 6.9 mph - N/A   Partly Cloudy
1:55 AM 55.4 °F 37.4 °F 51% 30.30 in 10.0 mi ESE 10.4 mph - N/A   Clear
2:15 AM 55.4 °F 37.4 °F 51% 30.30 in 10.0 mi East 12.7 mph - N/A   Clear
2:35 AM 55.4 °F 37.4 °F 51% 30.30 in 10.0 mi ESE 11.5 mph - N/A   Clear
2:55 AM 53.6 °F 37.4 °F 54% 30.30 in 10.0 mi East 9.2 mph - N/A   Clear
3:15 AM 53.6 °F 35.6 °F 51% 30.30 in 10.0 mi SE 6.9 mph - N/A   Clear
3:35 AM 51.8 °F 35.6 °F 54% 30.30 in 10.0 mi SE 8.1 mph - N/A   Clear
3:55 AM 51.8 °F 35.6 °F 54% 30.30 in 10.0 mi SE 10.4 mph - N/A   Clear
4:15 AM 51.8 °F 35.6 °F 54% 30.30 in 10.0 mi ESE 10.4 mph - N/A   Clear
4:35 AM 51.8 °F 35.6 °F 54% 30.30 in 10.0 mi SE 9.2 mph - N/A   Clear
4:55 AM 50.0 °F 35.6 °F 58% 30.30 in 10.0 mi ESE 6.9 mph - N/A   Clear
5:15 AM 51.8 °F 37.4 °F 58% 30.29 in 10.0 mi ESE 11.5 mph - N/A   Clear
5:35 AM 51.8 °F 37.4 °F 58% 30.30 in 10.0 mi ESE 11.5 mph - N/A   Clear
5:55 AM 51.8 °F 37.4 °F 58% 30.31 in 10.0 mi ESE 13.8 mph - N/A   Clear
6:15 AM 50.0 °F 37.4 °F 62% 30.31 in 10.0 mi ESE 12.7 mph - N/A   Clear
6:35 AM 51.8 °F 37.4 °F 58% 30.31 in 10.0 mi ESE 12.7 mph - N/A   Clear
6:55 AM 51.8 °F 37.4 °F 58% 30.31 in 10.0 mi ESE 11.5 mph - N/A   Clear
7:15 AM 53.6 °F 37.4 °F 54% 30.31 in 10.0 mi East 10.4 mph - N/A   Clear
7:35 AM 55.4 °F 37.4 °F 51% 30.31 in 10.0 mi ESE 9.2 mph - N/A   Clear
7:55 AM 53.6 °F 37.4 °F 54% 30.31 in 10.0 mi East 12.7 mph - N/A   Clear
8:15 AM 55.4 °F 37.4 °F 51% 30.32 in 10.0 mi East 8.1 mph - N/A   Clear
8:35 AM 55.4 °F 39.2 °F 54% 30.32 in 10.0 mi East 8.1 mph - N/A   Clear
8:55 AM 59.0 °F 39.2 °F 48% 30.32 in 10.0 mi ESE 6.9 mph - N/A   Clear
9:15 AM 60.8 °F 39.2 °F 45% 30.32 in 10.0 mi ESE 5.8 mph - N/A   Clear
9:35 AM 62.6 °F 39.2 °F 42% 30.32 in 10.0 mi East 3.5 mph - N/A   Clear
9:55 AM 64.4 °F 39.2 °F 40% 30.32 in 10.0 mi SE 4.6 mph - N/A   Clear
10:15 AM 66.2 °F 39.2 °F 37% 30.32 in 10.0 mi East 3.5 mph - N/A   Clear
10:35 AM 69.8 °F 39.2 °F 33% 30.31 in 10.0 mi ESE 4.6 mph - N/A   Clear
10:55 AM 71.6 °F 39.2 °F 31% 30.31 in 10.0 mi NE 3.5 mph - N/A   Clear
11:15 AM 73.4 °F 39.2 °F 29% 30.31 in 10.0 mi West 4.6 mph - N/A   Clear
11:35 AM 73.4 °F 37.4 °F 27% 30.30 in 10.0 mi WNW 4.6 mph - N/A   Clear
11:55 AM 75.2 °F 35.6 °F 24% 30.29 in 10.0 mi WNW 3.5 mph - N/A   Clear
12:15 PM 75.2 °F 35.6 °F 24% 30.28 in 10.0 mi WNW 8.1 mph - N/A   Clear
12:35 PM 77.0 °F 33.8 °F 21% 30.27 in 10.0 mi West 8.1 mph - N/A   Clear
12:55 PM 77.0 °F 32.0 °F 19% 30.26 in 10.0 mi North 4.6 mph - N/A   Clear
1:15 PM 77.0 °F 32.0 °F 19% 30.26 in 10.0 mi South 6.9 mph - N/A   Clear
1:35 PM 77.0 °F 30.2 °F 18% 30.26 in 10.0 mi SW 4.6 mph - N/A   Clear
1:55 PM 77.0 °F 32.0 °F 19% 30.26 in 10.0 mi SW 10.4 mph - N/A Thunderstorm Clear
2:15 PM 75.2 °F 28.4 °F 18% 30.27 in 10.0 mi SSW 17.3 mph 23.0 mph N/A Thunderstorm Clear
2:35 PM 75.2 °F 32.0 °F 21% 30.27 in 10.0 mi SW 27.6 mph 38.0 mph N/A   Clear
2:55 PM 71.6 °F 37.4 °F 29% 30.28 in 10.0 mi SW 20.7 mph 31.1 mph N/A   Clear
3:15 PM 71.6 °F 35.6 °F 27% 30.29 in 10.0 mi SW 16.1 mph 23.0 mph N/A   Clear
3:35 PM 69.8 °F 37.4 °F 31% 30.29 in 10.0 mi SW 10.4 mph 20.7 mph N/A   Clear
3:55 PM 69.8 °F 37.4 °F 31% 30.29 in 10.0 mi West 9.2 mph - N/A   Clear
4:15 PM 71.6 °F 39.2 °F 31% 30.29 in 10.0 mi NNE 4.6 mph - N/A   Clear
4:35 PM 71.6 °F 39.2 °F 31% 30.28 in 10.0 mi East 6.9 mph - N/A   Clear
4:55 PM 71.6 °F 39.2 °F 31% 30.28 in 10.0 mi WNW 4.6 mph - N/A   Clear
5:15 PM 71.6 °F 39.2 °F 31% 30.27 in 10.0 mi NNW 27.6 mph 35.7 mph N/A   Clear
5:35 PM 71.6 °F 39.2 °F 31% 30.28 in 10.0 mi NNW 21.9 mph 28.8 mph N/A   Clear
5:55 PM 71.6 °F 37.4 °F 29% 30.28 in 10.0 mi North 13.8 mph - N/A   Clear
6:15 PM 71.6 °F 37.4 °F 29% 30.28 in 10.0 mi NNW 11.5 mph - N/A   Clear
6:35 PM 71.6 °F 37.4 °F 29% 30.27 in 10.0 mi NNW 8.1 mph - N/A   Clear
6:55 PM 71.6 °F 37.4 °F 29% 30.27 in 10.0 mi NNW 6.9 mph - N/A   Clear
7:15 PM 71.6 °F 37.4 °F 29% 30.27 in 10.0 mi North 3.5 mph - N/A   Clear
7:35 PM 69.8 °F 39.2 °F 33% 30.27 in 10.0 mi NE 5.8 mph - N/A   Clear
7:55 PM 69.8 °F 39.2 °F 33% 30.28 in 10.0 mi NE 4.6 mph - N/A   Clear
8:15 PM 66.2 °F 39.2 °F 37% 30.28 in 10.0 mi East 10.4 mph - N/A   Clear
8:35 PM 64.4 °F 41.0 °F 42% 30.29 in 10.0 mi East 10.4 mph - N/A   Clear
8:55 PM 64.4 °F 39.2 °F 40% 30.30 in 10.0 mi SSE 4.6 mph - N/A   Clear
9:15 PM 62.6 °F 39.2 °F 42% 30.30 in 10.0 mi SSE 3.5 mph - N/A   Clear
9:35 PM 62.6 °F 39.2 °F 42% 30.30 in 10.0 mi SSW 4.6 mph - N/A   Clear
9:55 PM 59.0 °F 39.2 °F 48% 30.31 in 10.0 mi SSW 3.5 mph - N/A   Clear
11:15 PM 55.4 °F 39.2 °F 54% 30.31 in 10.0 mi ESE 10.4 mph - N/A   Clear
11:35 PM 57.2 °F 39.2 °F 51% 30.31 in 10.0 mi ESE 9.2 mph - N/A   Partly Cloudy
11:55 PM 57.2 °F 41.0 °F 55% 30.33 in 10.0 mi South 9.2 mph - N/A   Scattered Clouds